createdAt,value
2023-04-13T00:18:51.710Z,99339.59
2023-04-13T05:43:29.911Z,99433.00
2023-04-13T05:46:56.656Z,99429.38
2023-04-13T05:50:18.180Z,99438.66
2023-04-13T06:03:39.711Z,99440.19
2023-04-13T06:06:09.657Z,99456.22
2023-04-13T06:08:43.048Z,99456.56
2023-04-13T06:11:24.857Z,99452.22
2023-04-13T06:14:00.391Z,99446.03
2023-04-13T06:16:41.013Z,99436.25
2023-04-13T06:19:19.805Z,99440.06
2023-04-13T06:21:56.888Z,99443.06
2023-04-13T06:24:35.446Z,99449.19
2023-04-13T06:27:16.886Z,99447.69
2023-04-13T06:29:54.972Z,99451.50
2023-04-13T06:35:25.545Z,99452.44
2023-04-13T06:38:07.544Z,99460.28
2023-04-13T06:40:39.538Z,99456.97
2023-04-13T06:44:10.014Z,99458.63
2023-04-13T06:46:54.869Z,99449.78
2023-04-13T06:53:00.541Z,99463.50
2023-04-13T06:55:36.888Z,99464.44
2023-04-13T07:01:50.093Z,99465.59
2023-04-13T07:04:28.992Z,99463.50
2023-04-13T07:11:01.724Z,99471.97
2023-04-13T07:16:51.631Z,99487.00
2023-04-13T07:19:28.613Z,99479.75
2023-04-13T07:22:14.192Z,99487.22
2023-04-13T07:25:11.189Z,99498.53
2023-04-13T07:28:18.638Z,99490.91
2023-04-13T07:31:15.100Z,99492.41
2023-04-13T07:33:55.843Z,99489.75
2023-04-13T07:36:31.800Z,99505.19
2023-04-13T07:39:13.599Z,99502.22
2023-04-13T07:41:55.791Z,99495.41
2023-04-13T07:44:44.545Z,99497.03
2023-04-13T07:54:37.824Z,99499.63
2023-04-13T08:42:29.368Z,99541.56
2023-04-13T08:48:09.994Z,99544.88
2023-04-13T08:50:54.814Z,99542.63
2023-04-13T08:53:33.636Z,99545.03
2023-04-13T08:59:01.739Z,99548.22
2023-04-13T09:04:27.388Z,99541.38
2023-04-13T09:10:56.379Z,99538.34
2023-04-13T09:14:19.961Z,99546.16
2023-04-13T09:19:53.375Z,99556.91
2023-04-13T09:25:34.675Z,99574.38
2023-04-13T09:28:24.972Z,99571.00
2023-04-13T09:31:36.293Z,99563.69
2023-04-13T09:45:12.082Z,99573.44
2023-04-13T09:47:49.193Z,99577.59
2023-04-13T09:50:24.202Z,99601.16
2023-04-13T09:53:52.892Z,99585.72
2023-04-13T09:56:31.486Z,99586.28
2023-04-13T09:59:08.591Z,99593.75
2023-04-13T10:04:34.959Z,99592.50
2023-04-13T10:07:13.781Z,99582.41
2023-04-13T10:09:58.733Z,99598.22
2023-04-13T10:12:32.132Z,99588.50
2023-04-13T10:15:22.940Z,99584.75
2023-04-13T10:18:23.784Z,99590.47
2023-04-13T10:21:00.653Z,99585.56
2023-04-13T10:23:38.040Z,99584.50
2023-04-13T10:26:18.435Z,99576.31
2023-04-13T10:28:52.204Z,99579.03
2023-04-13T10:34:47.125Z,99583.19
2023-04-13T10:37:41.000Z,99580.53
2023-04-13T10:40:15.554Z,99573.94
2023-04-13T10:45:42.547Z,99574.75
2023-04-13T10:48:29.707Z,99585.66
2023-04-13T10:51:08.648Z,99584.84
2023-04-13T10:53:39.165Z,99574.31
2023-04-13T10:56:33.244Z,99587.91
2023-04-13T10:59:14.525Z,99587.22
2023-04-13T11:01:54.485Z,99581.34
2023-04-13T11:04:32.461Z,99581.34
2023-04-13T11:07:11.614Z,99584.19
2023-04-13T11:09:50.740Z,99577.38
2023-04-13T11:12:25.434Z,99576.78
2023-04-13T11:15:02.330Z,99574.03
2023-04-13T11:17:35.860Z,99570.81
2023-04-13T11:20:18.665Z,99576.94
2023-04-13T11:23:12.031Z,99567.41
2023-04-13T11:28:47.619Z,99561.84
2023-04-13T11:31:28.607Z,99561.91
2023-04-13T11:34:15.141Z,99565.44
2023-04-13T11:40:17.369Z,99562.50
2023-04-13T11:42:47.953Z,99564.59
2023-04-13T11:45:21.867Z,99556.59
2023-04-13T11:48:02.812Z,99559.78
2023-04-13T11:53:18.291Z,99557.75
2023-04-13T11:55:53.735Z,99556.06
2023-04-13T11:58:26.040Z,99544.63
2023-04-13T12:00:59.851Z,99552.00
2023-04-13T12:07:02.350Z,99545.69
2023-04-13T12:12:51.406Z,99539.88
2023-04-13T12:15:43.962Z,99543.72
2023-04-13T12:32:09.221Z,99549.00
2023-04-13T12:34:42.061Z,99558.94
2023-04-13T12:37:14.551Z,99568.38
2023-04-13T12:39:44.172Z,99572.91
2023-04-13T12:42:18.544Z,99576.78
2023-04-13T12:44:56.949Z,99573.94
2023-04-13T12:47:35.396Z,99576.41
2023-04-13T12:50:10.472Z,99566.31
2023-04-13T12:52:49.503Z,99552.75
2023-04-13T12:55:28.425Z,99551.72
2023-04-13T13:01:51.413Z,99550.31
2023-04-13T13:08:27.900Z,99567.63
2023-04-13T13:15:20.161Z,99559.13
2023-04-13T13:18:21.204Z,99555.59
2023-04-13T13:21:16.006Z,99563.28
2023-04-13T13:23:52.583Z,99570.75
2023-04-13T13:26:51.677Z,99565.41
2023-04-13T13:38:00.391Z,99550.81
2023-04-13T14:02:13.279Z,99564.56
2023-04-13T14:16:14.041Z,99556.00
2023-04-13T14:18:49.069Z,99557.66
2023-04-13T14:24:22.312Z,99552.09
2023-04-13T14:27:02.525Z,99555.63
2023-04-13T14:29:31.218Z,99555.22
2023-04-13T14:32:00.923Z,99555.00
2023-04-13T14:34:46.298Z,99560.13
2023-04-13T14:37:18.875Z,99556.66
2023-04-13T14:39:48.162Z,99550.91
2023-04-13T14:56:36.826Z,99549.06
2023-04-13T14:59:08.206Z,99560.16
2023-04-13T15:01:36.702Z,99560.78
2023-04-13T15:04:05.002Z,99556.06
2023-04-13T15:06:36.792Z,99564.06
2023-04-13T15:09:13.558Z,99573.53
2023-04-13T15:11:46.354Z,99578.44
2023-04-13T15:14:41.973Z,99586.28
2023-04-13T15:20:08.525Z,99601.06
2023-04-13T15:23:10.797Z,99600.03
2023-04-13T15:26:09.277Z,99609.31
2023-04-13T15:31:51.891Z,99625.09
2023-04-13T15:34:36.136Z,99623.63
2023-04-13T15:37:11.740Z,99630.53
2023-04-13T15:39:41.519Z,99631.72
2023-04-13T15:45:29.580Z,99620.88
2023-04-13T15:48:07.813Z,99628.22
2023-04-13T15:50:38.089Z,99620.78
2023-04-13T15:53:15.116Z,99622.78
2023-04-13T15:56:28.334Z,99629.69
2023-04-13T15:58:50.969Z,99635.56
2023-04-13T16:01:22.897Z,99639.84
2023-04-13T16:03:53.249Z,99642.44
2023-04-13T16:06:25.420Z,99633.19
2023-04-13T16:08:59.786Z,99634.19
2023-04-13T16:11:37.129Z,99634.31
2023-04-13T16:14:11.861Z,99640.38
2023-04-13T16:16:49.844Z,99643.84
2023-04-13T16:19:26.015Z,99644.84
2023-04-13T16:21:55.835Z,99648.53
2023-04-13T16:24:24.622Z,99649.06
2023-04-13T16:26:55.675Z,99655.06
2023-04-13T16:29:29.372Z,99650.03
2023-04-13T16:32:04.921Z,99652.06
2023-04-13T16:34:33.700Z,99657.22
2023-04-13T16:37:08.529Z,99662.47
2023-04-13T16:39:41.001Z,99667.00
2023-04-13T16:42:13.491Z,99662.16
2023-04-13T16:44:43.286Z,99670.63
2023-04-13T16:47:23.873Z,99675.88
2023-04-13T16:49:56.041Z,99682.94
2023-04-13T16:52:40.296Z,99684.88
2023-04-13T16:55:18.138Z,99687.31
2023-04-13T16:57:51.472Z,99693.91
2023-04-13T17:00:24.661Z,99691.25
2023-04-13T17:03:05.207Z,99690.78
2023-04-13T17:06:46.422Z,99708.09
2023-04-13T17:08:26.763Z,99730.84
2023-04-13T17:10:58.311Z,99734.50
2023-04-13T17:13:37.026Z,99735.44
2023-04-13T17:16:09.236Z,99741.88
2023-04-13T17:18:43.673Z,99739.97
2023-04-13T17:21:18.258Z,99739.59
2023-04-13T17:23:49.487Z,99717.38
2023-04-13T17:28:48.023Z,99707.16
2023-04-13T17:31:17.467Z,99701.22
2023-04-13T17:33:50.283Z,99710.00
2023-04-13T17:50:15.450Z,99689.13
2023-04-13T17:52:51.022Z,99696.19
2023-04-13T17:56:19.931Z,99697.25
2023-04-13T17:58:49.735Z,99705.84
2023-04-13T18:01:26.400Z,99704.16
2023-04-13T18:03:55.670Z,99710.47
2023-04-13T18:06:30.040Z,99715.78
2023-04-13T18:09:04.556Z,99720.13
2023-04-13T18:11:33.651Z,99722.13
2023-04-13T18:14:04.486Z,99726.22
2023-04-13T18:17:20.521Z,99733.03
2023-04-13T18:19:53.769Z,99738.00
2023-04-13T18:22:52.674Z,99740.72
2023-04-13T18:28:39.092Z,99753.63
2023-04-13T18:31:15.583Z,99763.44
2023-04-13T18:33:48.028Z,99774.19
2023-04-13T18:36:27.984Z,99769.19
2023-04-13T18:39:49.913Z,99777.81
2023-04-13T18:42:27.061Z,99785.13
2023-04-13T18:45:02.017Z,99789.28
2023-04-13T18:47:47.213Z,99788.28
2023-04-13T18:50:34.021Z,99795.75
2023-04-13T18:53:33.932Z,99786.97
2023-04-13T18:56:25.147Z,99792.44
2023-04-13T19:01:56.082Z,99788.00
2023-04-13T19:05:04.231Z,99787.50
2023-04-13T19:07:54.095Z,99788.34
2023-04-13T19:10:30.872Z,99785.56
2023-04-13T19:13:47.273Z,99789.56
2023-04-13T19:16:36.997Z,99784.59
2023-04-13T19:19:09.540Z,99788.59
2023-04-13T19:21:47.332Z,99790.94
2023-04-13T19:24:53.973Z,99789.13
2023-04-13T19:27:27.497Z,99786.63
2023-04-13T19:29:59.875Z,99792.44
2023-04-13T19:32:56.857Z,99795.44
2023-04-13T19:35:45.074Z,99798.59
2023-04-13T19:38:17.512Z,99798.13
2023-04-13T19:40:46.845Z,99805.28
2023-04-13T19:43:29.455Z,99809.25
2023-04-13T19:45:58.682Z,99812.59
2023-04-13T19:48:31.597Z,99807.78
2023-04-13T19:51:06.984Z,99812.47
2023-04-13T19:53:40.619Z,99807.31
2023-04-13T19:56:12.838Z,99813.63
2023-04-13T20:09:56.894Z,99803.50
2023-04-13T20:13:24.870Z,99802.66
2023-04-13T20:16:03.812Z,99807.00
2023-04-13T20:18:42.388Z,99811.97
2023-04-13T20:21:30.537Z,99809.34
2023-04-13T20:59:32.426Z,99824.88
2023-04-13T21:03:13.651Z,99829.66
2023-04-13T22:10:19.697Z,99830.81
2023-04-13T22:40:47.862Z,99874.13
